sensor_id;sensor_type;location;lat;lon;timestamp;pressure;altitude;pressure_sealevel;temperature;humidity
71485;BME280;59300;52.074;4.758;2022-11-23T00:01:51;99489.91;;;6.48;100.00
71485;BME280;59300;52.074;4.758;2022-11-23T00:04:52;99500.31;;;6.50;100.00
71485;BME280;59300;52.074;4.758;2022-11-23T00:07:54;99490.63;;;6.53;100.00
71485;BME280;59300;52.074;4.758;2022-11-23T00:10:59;99496.59;;;6.57;100.00
71485;BME280;59300;52.074;4.758;2022-11-23T00:14:00;99493.97;;;6.57;100.00
71485;BME280;59300;52.074;4.758;2022-11-23T00:17:02;99499.16;;;6.58;100.00
71485;BME280;59300;52.074;4.758;2022-11-23T00:20:21;99510.41;;;6.62;100.00
71485;BME280;59300;52.074;4.758;2022-11-23T00:23:22;99517.25;;;6.66;100.00
71485;BME280;59300;52.074;4.758;2022-11-23T00:26:24;99521.66;;;6.66;100.00
71485;BME280;59300;52.074;4.758;2022-11-23T00:29:25;99525.94;;;6.68;100.00
71485;BME280;59300;52.074;4.758;2022-11-23T00:32:30;99517.25;;;6.66;100.00
71485;BME280;59300;52.074;4.758;2022-11-23T00:35:32;99524.22;;;6.67;100.00
71485;BME280;59300;52.074;4.758;2022-11-23T00:38:35;99527.75;;;6.66;100.00
71485;BME280;59300;52.074;4.758;2022-11-23T00:41:36;99531.19;;;6.68;100.00
71485;BME280;59300;52.074;4.758;2022-11-23T00:44:38;99532.91;;;6.69;100.00
71485;BME280;59300;52.074;4.758;2022-11-23T00:47:40;99532.81;;;6.72;100.00
71485;BME280;59300;52.074;4.758;2022-11-23T00:50:41;99537.00;;;6.78;100.00
71485;BME280;59300;52.074;4.758;2022-11-23T00:53:43;99535.22;;;6.79;100.00
71485;BME280;59300;52.074;4.758;2022-11-23T00:56:44;99534.25;;;6.81;100.00
71485;BME280;59300;52.074;4.758;2022-11-23T00:59:46;99536.03;;;6.81;100.00
71485;BME280;59300;52.074;4.758;2022-11-23T01:02:47;99538.53;;;6.84;100.00
71485;BME280;59300;52.074;4.758;2022-11-23T01:05:49;99537.63;;;6.85;100.00
71485;BME280;59300;52.074;4.758;2022-11-23T01:08:56;99541.09;;;6.85;100.00
71485;BME280;59300;52.074;4.758;2022-11-23T01:11:57;99541.97;;;6.86;100.00
71485;BME280;59300;52.074;4.758;2022-11-23T01:14:59;99542.88;;;6.85;100.00
71485;BME280;59300;52.074;4.758;2022-11-23T01:18:02;99537.47;;;6.89;100.00
71485;BME280;59300;52.074;4.758;2022-11-23T01:21:05;99546.03;;;6.95;100.00
71485;BME280;59300;52.074;4.758;2022-11-23T01:24:18;99546.91;;;6.95;100.00
71485;BME280;59300;52.074;4.758;2022-11-23T01:27:20;99546.09;;;6.93;100.00
71485;BME280;59300;52.074;4.758;2022-11-23T01:30:24;99542.56;;;6.94;100.00
71485;BME280;59300;52.074;4.758;2022-11-23T01:33:26;99545.28;;;6.91;100.00
71485;BME280;59300;52.074;4.758;2022-11-23T01:36:30;99549.69;;;6.90;100.00
71485;BME280;59300;52.074;4.758;2022-11-23T01:39:31;99550.59;;;6.89;100.00
71485;BME280;59300;52.074;4.758;2022-11-23T01:42:56;99556.78;;;6.87;100.00
71485;BME280;59300;52.074;4.758;2022-11-23T01:45:59;99556.03;;;6.83;100.00
71485;BME280;59300;52.074;4.758;2022-11-23T01:49:03;99555.19;;;6.83;100.00
71485;BME280;59300;52.074;4.758;2022-11-23T01:52:06;99561.34;;;6.82;100.00
71485;BME280;59300;52.074;4.758;2022-11-23T01:55:10;99556.91;;;6.84;100.00
71485;BME280;59300;52.074;4.758;2022-11-23T01:58:13;99562.34;;;6.78;100.00
71485;BME280;59300;52.074;4.758;2022-11-23T02:01:16;99563.38;;;6.73;100.00
71485;BME280;59300;52.074;4.758;2022-11-23T02:04:24;99563.25;;;6.76;100.00
71485;BME280;59300;52.074;4.758;2022-11-23T02:07:27;99566.84;;;6.74;100.00
71485;BME280;59300;52.074;4.758;2022-11-23T02:10:30;99565.88;;;6.76;100.00
71485;BME280;59300;52.074;4.758;2022-11-23T02:13:32;99568.59;;;6.73;100.00
71485;BME280;59300;52.074;4.758;2022-11-23T02:16:35;99563.47;;;6.70;100.00
71485;BME280;59300;52.074;4.758;2022-11-23T02:22:56;99567.97;;;6.65;100.00
71485;BME280;59300;52.074;4.758;2022-11-23T02:26:04;99577.72;;;6.61;100.00
71485;BME280;59300;52.074;4.758;2022-11-23T02:29:11;99578.72;;;6.57;100.00
71485;BME280;59300;52.074;4.758;2022-11-23T02:32:22;99575.25;;;6.57;100.00
71485;BME280;59300;52.074;4.758;2022-11-23T02:35:29;99575.34;;;6.54;100.00
71485;BME280;59300;52.074;4.758;2022-11-23T02:38:32;99567.63;;;6.49;100.00
71485;BME280;59300;52.074;4.758;2022-11-23T02:41:46;99579.75;;;6.53;100.00
71485;BME280;59300;52.074;4.758;2022-11-23T02:47:50;99576.31;;;6.50;100.00
71485;BME280;59300;52.074;4.758;2022-11-23T02:50:51;99576.31;;;6.51;100.00
71485;BME280;59300;52.074;4.758;2022-11-23T02:53:53;99577.16;;;6.52;100.00
71485;BME280;59300;52.074;4.758;2022-11-23T02:56:54;99579.06;;;6.47;100.00
71485;BME280;59300;52.074;4.758;2022-11-23T02:59:56;99578.25;;;6.44;100.00
71485;BME280;59300;52.074;4.758;2022-11-23T03:03:00;99582.69;;;6.42;100.00
71485;BME280;59300;52.074;4.758;2022-11-23T03:06:01;99584.31;;;6.47;100.00
71485;BME280;59300;52.074;4.758;2022-11-23T03:09:06;99586.81;;;6.50;100.00
71485;BME280;59300;52.074;4.758;2022-11-23T03:12:08;99589.34;;;6.53;100.00
71485;BME280;59300;52.074;4.758;2022-11-23T03:15:09;99583.94;;;6.59;100.00
71485;BME280;59300;52.074;4.758;2022-11-23T03:18:14;99589.03;;;6.62;100.00
71485;BME280;59300;52.074;4.758;2022-11-23T03:21:17;99579.28;;;6.67;100.00
71485;BME280;59300;52.074;4.758;2022-11-23T03:24:18;99584.38;;;6.72;100.00
71485;BME280;59300;52.074;4.758;2022-11-23T03:27:21;99586.97;;;6.73;100.00
71485;BME280;59300;52.074;4.758;2022-11-23T03:30:24;99587.81;;;6.74;100.00
71485;BME280;59300;52.074;4.758;2022-11-23T03:33:27;99585.13;;;6.75;100.00
71485;BME280;59300;52.074;4.758;2022-11-23T03:36:28;99587.63;;;6.80;100.00
71485;BME280;59300;52.074;4.758;2022-11-23T03:39:30;99598.13;;;6.80;100.00
71485;BME280;59300;52.074;4.758;2022-11-23T03:42:51;99595.53;;;6.79;100.00
71485;BME280;59300;52.074;4.758;2022-11-23T03:45:52;99593.72;;;6.81;100.00
71485;BME280;59300;52.074;4.758;2022-11-23T03:48:54;99587.66;;;6.79;100.00
71485;BME280;59300;52.074;4.758;2022-11-23T03:51:56;99585.84;;;6.81;100.00
71485;BME280;59300;52.074;4.758;2022-11-23T03:54:57;99597.19;;;6.81;100.00
71485;BME280;59300;52.074;4.758;2022-11-23T03:57:59;99588.47;;;6.81;100.00
71485;BME280;59300;52.074;4.758;2022-11-23T04:01:05;99584.03;;;6.83;100.00
71485;BME280;59300;52.074;4.758;2022-11-23T04:04:07;99593.72;;;6.81;100.00
71485;BME280;59300;52.074;4.758;2022-11-23T04:07:41;99581.59;;;6.76;100.00
71485;BME280;59300;52.074;4.758;2022-11-23T04:10:43;99595.50;;;6.80;100.00
71485;BME280;59300;52.074;4.758;2022-11-23T04:13:48;99589.31;;;6.81;100.00
71485;BME280;59300;52.074;4.758;2022-11-23T04:16:51;99600.66;;;6.82;100.00
71485;BME280;59300;52.074;4.758;2022-11-23T04:19:53;99596.34;;;6.81;100.00
71485;BME280;59300;52.074;4.758;2022-11-23T04:22:55;99592.75;;;6.83;100.00
71485;BME280;59300;52.074;4.758;2022-11-23T04:25:58;99591.81;;;6.86;100.00
71485;BME280;59300;52.074;4.758;2022-11-23T04:28:59;99582.31;;;6.82;100.00
71485;BME280;59300;52.074;4.758;2022-11-23T04:32:02;99590.94;;;6.85;100.00
71485;BME280;59300;52.074;4.758;2022-11-23T04:35:04;99593.56;;;6.85;100.00
71485;BME280;59300;52.074;4.758;2022-11-23T04:38:07;99590.09;;;6.85;100.00
71485;BME280;59300;52.074;4.758;2022-11-23T04:41:10;99591.84;;;6.84;100.00
71485;BME280;59300;52.074;4.758;2022-11-23T04:44:13;99595.34;;;6.85;100.00
71485;BME280;59300;52.074;4.758;2022-11-23T04:47:15;99593.50;;;6.87;100.00
71485;BME280;59300;52.074;4.758;2022-11-23T04:50:20;99594.28;;;6.90;100.00
71485;BME280;59300;52.074;4.758;2022-11-23T04:53:27;99595.03;;;6.94;100.00
71485;BME280;59300;52.074;4.758;2022-11-23T04:56:30;99595.78;;;6.98;100.00
71485;BME280;59300;52.074;4.758;2022-11-23T04:59:32;99588.81;;;6.97;100.00
71485;BME280;59300;52.074;4.758;2022-11-23T05:02:34;99590.50;;;6.99;100.00
71485;BME280;59300;52.074;4.758;2022-11-23T05:05:43;99593.97;;;7.00;100.00
71485;BME280;59300;52.074;4.758;2022-11-23T05:08:45;99595.63;;;7.02;100.00
71485;BME280;59300;52.074;4.758;2022-11-23T05:12:00;99591.28;;;7.01;100.00
71485;BME280;59300;52.074;4.758;2022-11-23T05:15:04;99599.06;;;7.04;100.00
71485;BME280;59300;52.074;4.758;2022-11-23T05:18:10;99605.19;;;7.03;100.00
71485;BME280;59300;52.074;4.758;2022-11-23T05:21:13;99601.91;;;6.98;100.00
71485;BME280;59300;52.074;4.758;2022-11-23T05:24:15;99606.25;;;6.98;100.00
71485;BME280;59300;52.074;4.758;2022-11-23T05:27:26;99605.28;;;7.00;100.00
71485;BME280;59300;52.074;4.758;2022-11-23T05:30:30;99606.22;;;6.99;100.00
71485;BME280;59300;52.074;4.758;2022-11-23T05:33:31;99613.16;;;7.00;100.00
71485;BME280;59300;52.074;4.758;2022-11-23T05:36:34;99602.00;;;6.95;100.00
71485;BME280;59300;52.074;4.758;2022-11-23T05:39:42;99610.94;;;6.88;100.00
71485;BME280;59300;52.074;4.758;2022-11-23T05:42:44;99610.94;;;6.88;100.00
71485;BME280;59300;52.074;4.758;2022-11-23T05:45:51;99614.59;;;6.84;100.00
71485;BME280;59300;52.074;4.758;2022-11-23T05:48:53;99610.44;;;6.76;100.00
71485;BME280;59300;52.074;4.758;2022-11-23T05:51:56;99615.75;;;6.75;100.00
71485;BME280;59300;52.074;4.758;2022-11-23T05:54:59;99612.41;;;6.70;100.00
71485;BME280;59300;52.074;4.758;2022-11-23T05:58:02;99614.19;;;6.69;100.00
71485;BME280;59300;52.074;4.758;2022-11-23T06:01:05;99617.56;;;6.73;100.00
71485;BME280;59300;52.074;4.758;2022-11-23T06:04:09;99607.16;;;6.70;100.00
71485;BME280;59300;52.074;4.758;2022-11-23T06:07:15;99610.81;;;6.66;100.00
71485;BME280;59300;52.074;4.758;2022-11-23T06:10:39;99613.38;;;6.67;100.00
71485;BME280;59300;52.074;4.758;2022-11-23T06:13:41;99604.69;;;6.65;100.00
71485;BME280;59300;52.074;4.758;2022-11-23T06:16:50;99605.81;;;6.56;100.00
71485;BME280;59300;52.074;4.758;2022-11-23T06:20:12;99603.56;;;6.45;100.00
71485;BME280;59300;52.074;4.758;2022-11-23T06:23:17;99599.50;;;6.35;100.00
71485;BME280;59300;52.074;4.758;2022-11-23T06:26:19;99605.66;;;6.34;100.00
71485;BME280;59300;52.074;4.758;2022-11-23T06:29:21;99604.03;;;6.30;100.00
71485;BME280;59300;52.074;4.758;2022-11-23T06:32:23;99605.38;;;6.13;100.00
71485;BME280;59300;52.074;4.758;2022-11-23T06:35:24;99599.56;;;6.04;100.00
71485;BME280;59300;52.074;4.758;2022-11-23T06:38:27;99601.41;;;6.00;100.00
71485;BME280;59300;52.074;4.758;2022-11-23T06:41:35;99600.59;;;5.96;100.00
71485;BME280;59300;52.074;4.758;2022-11-23T06:44:37;99597.59;;;5.80;100.00
71485;BME280;59300;52.074;4.758;2022-11-23T06:47:38;99603.22;;;5.66;100.00
71485;BME280;59300;52.074;4.758;2022-11-23T06:50:41;99595.38;;;5.65;100.00
71485;BME280;59300;52.074;4.758;2022-11-23T06:53:42;99597.19;;;5.63;100.00
71485;BME280;59300;52.074;4.758;2022-11-23T06:56:46;99594.91;;;5.50;100.00
71485;BME280;59300;52.074;4.758;2022-11-23T06:59:48;99610.72;;;5.47;100.00
71485;BME280;59300;52.074;4.758;2022-11-23T07:02:55;99621.53;;;5.33;100.00
71485;BME280;59300;52.074;4.758;2022-11-23T07:05:58;99624.25;;;5.29;100.00
71485;BME280;59300;52.074;4.758;2022-11-23T07:09:02;99631.47;;;5.20;100.00
71485;BME280;59300;52.074;4.758;2022-11-23T07:12:17;99630.13;;;5.38;100.00
71485;BME280;59300;52.074;4.758;2022-11-23T07:15:18;99637.78;;;5.46;100.00
71485;BME280;59300;52.074;4.758;2022-11-23T07:18:20;99642.91;;;5.49;100.00
71485;BME280;59300;52.074;4.758;2022-11-23T07:21:27;99648.06;;;5.52;100.00
71485;BME280;59300;52.074;4.758;2022-11-23T07:24:29;99639.16;;;5.60;100.00
71485;BME280;59300;52.074;4.758;2022-11-23T07:27:40;99647.66;;;5.68;100.00
71485;BME280;59300;52.074;4.758;2022-11-23T07:30:42;99650.91;;;5.78;100.00
71485;BME280;59300;52.074;4.758;2022-11-23T07:33:44;99658.63;;;5.82;100.00
71485;BME280;59300;52.074;4.758;2022-11-23T07:36:46;99655.00;;;5.87;100.00
71485;BME280;59300;52.074;4.758;2022-11-23T07:39:48;99661.94;;;5.89;100.00
71485;BME280;59300;52.074;4.758;2022-11-23T07:43:01;99666.13;;;5.95;100.00
71485;BME280;59300;52.074;4.758;2022-11-23T07:46:03;99665.25;;;5.96;100.00
71485;BME280;59300;52.074;4.758;2022-11-23T07:49:04;99672.97;;;5.99;100.00
71485;BME280;59300;52.074;4.758;2022-11-23T07:52:06;99670.25;;;6.05;100.00
71485;BME280;59300;52.074;4.758;2022-11-23T07:55:08;99669.59;;;5.95;100.00
71485;BME280;59300;52.074;4.758;2022-11-23T07:58:10;99677.44;;;5.95;100.00
71485;BME280;59300;52.074;4.758;2022-11-23T08:01:15;99681.78;;;5.98;100.00
71485;BME280;59300;52.074;4.758;2022-11-23T08:04:17;99688.38;;;6.11;100.00
71485;BME280;59300;52.074;4.758;2022-11-23T08:07:18;99687.09;;;6.26;100.00
71485;BME280;59300;52.074;4.758;2022-11-23T08:10:20;99687.72;;;6.36;100.00
71485;BME280;59300;52.074;4.758;2022-11-23T08:13:21;99683.00;;;6.48;100.00
71485;BME280;59300;52.074;4.758;2022-11-23T08:16:23;99685.25;;;6.60;100.00
71485;BME280;59300;52.074;4.758;2022-11-23T08:19:24;99682.28;;;6.71;100.00
71485;BME280;59300;52.074;4.758;2022-11-23T08:22:26;99682.34;;;6.69;100.00
71485;BME280;59300;52.074;4.758;2022-11-23T08:25:28;99692.91;;;6.68;100.00
71485;BME280;59300;52.074;4.758;2022-11-23T08:28:31;99693.78;;;6.67;100.00
71485;BME280;59300;52.074;4.758;2022-11-23T08:31:33;99694.72;;;6.64;100.00
71485;BME280;59300;52.074;4.758;2022-11-23T08:34:34;99695.63;;;6.63;100.00
71485;BME280;59300;52.074;4.758;2022-11-23T08:37:36;99693.91;;;6.62;100.00
71485;BME280;59300;52.074;4.758;2022-11-23T08:40:37;99694.69;;;6.66;100.00
71485;BME280;59300;52.074;4.758;2022-11-23T08:43:39;99701.47;;;6.73;100.00
71485;BME280;59300;52.074;4.758;2022-11-23T08:46:40;99696.88;;;6.80;100.00
71485;BME280;59300;52.074;4.758;2022-11-23T08:49:42;99693.16;;;6.87;100.00
71485;BME280;59300;52.074;4.758;2022-11-23T08:52:43;99694.50;;;7.00;100.00
71485;BME280;59300;52.074;4.758;2022-11-23T08:55:45;99702.50;;;7.24;100.00
71485;BME280;59300;52.074;4.758;2022-11-23T08:58:46;99680.78;;;7.46;100.00
71485;BME280;59300;52.074;4.758;2022-11-23T09:01:48;99677.78;;;7.57;100.00
71485;BME280;59300;52.074;4.758;2022-11-23T09:04:50;99675.75;;;7.65;100.00
71485;BME280;59300;52.074;4.758;2022-11-23T09:07:51;99664.72;;;7.55;100.00
71485;BME280;59300;52.074;4.758;2022-11-23T09:10:53;99657.59;;;7.32;100.00
71485;BME280;59300;52.074;4.758;2022-11-23T09:13:54;99656.94;;;7.25;100.00
71485;BME280;59300;52.074;4.758;2022-11-23T09:16:56;99654.69;;;7.14;100.00
71485;BME280;59300;52.074;4.758;2022-11-23T09:19:57;99658.41;;;7.07;100.00
71485;BME280;59300;52.074;4.758;2022-11-23T09:22:59;99649.09;;;6.98;100.00
71485;BME280;59300;52.074;4.758;2022-11-23T09:26:02;99643.97;;;6.95;100.00
71485;BME280;59300;52.074;4.758;2022-11-23T09:29:04;99629.06;;;6.96;100.00
71485;BME280;59300;52.074;4.758;2022-11-23T09:32:06;99623.16;;;6.89;100.00
71485;BME280;59300;52.074;4.758;2022-11-23T09:35:07;99610.94;;;6.88;100.00
71485;BME280;59300;52.074;4.758;2022-11-23T09:38:10;99589.19;;;6.86;100.00
71485;BME280;59300;52.074;4.758;2022-11-23T09:51:18;99608.44;;;6.85;100.00
71485;BME280;59300;52.074;4.758;2022-11-23T09:54:33;99605.69;;;6.88;100.00
71485;BME280;59300;52.074;4.758;2022-11-23T09:57:41;99603.13;;;6.86;100.00
71485;BME280;59300;52.074;4.758;2022-11-23T10:00:51;99607.25;;;6.94;100.00
71485;BME280;59300;52.074;4.758;2022-11-23T10:03:56;99602.84;;;6.96;100.00
71485;BME280;59300;52.074;4.758;2022-11-23T10:07:10;99607.22;;;6.95;100.00
71485;BME280;59300;52.074;4.758;2022-11-23T10:10:30;99628.13;;;6.98;100.00
71485;BME280;59300;52.074;4.758;2022-11-23T10:17:48;99621.00;;;7.02;100.00
71485;BME280;59300;52.074;4.758;2022-11-23T10:24:41;99620.34;;;7.22;100.00
71485;BME280;59300;52.074;4.758;2022-11-23T10:27:46;99626.53;;;7.19;100.00
71485;BME280;59300;52.074;4.758;2022-11-23T10:30:56;99620.44;;;7.19;100.00
71485;BME280;59300;52.074;4.758;2022-11-23T10:34:13;99620.34;;;7.22;100.00
71485;BME280;59300;52.074;4.758;2022-11-23T10:37:16;99621.94;;;7.26;100.00
71485;BME280;59300;52.074;4.758;2022-11-23T10:40:22;99613.97;;;7.29;100.00
71485;BME280;59300;52.074;4.758;2022-11-23T10:43:30;99610.75;;;7.21;100.00
71485;BME280;59300;52.074;4.758;2022-11-23T10:49:36;99631.66;;;7.24;100.00
71485;BME280;59300;52.074;4.758;2022-11-23T10:52:48;99635.38;;;7.17;100.00
71485;BME280;59300;52.074;4.758;2022-11-23T10:55:53;99624.38;;;7.05;100.00
71485;BME280;59300;52.074;4.758;2022-11-23T10:58:55;99623.47;;;7.06;100.00
71485;BME280;59300;52.074;4.758;2022-11-23T11:02:16;99631.34;;;7.06;100.00
71485;BME280;59300;52.074;4.758;2022-11-23T11:05:34;99629.53;;;7.09;100.00
71485;BME280;59300;52.074;4.758;2022-11-23T11:08:59;99607.22;;;7.22;100.00
71485;BME280;59300;52.074;4.758;2022-11-23T11:12:04;99604.59;;;7.22;100.00
71485;BME280;59300;52.074;4.758;2022-11-23T11:18:17;99577.22;;;7.04;100.00
71485;BME280;59300;52.074;4.758;2022-11-23T11:21:21;99569.56;;;7.23;100.00
71485;BME280;59300;52.074;4.758;2022-11-23T11:24:32;99567.00;;;7.47;100.00
71485;BME280;59300;52.074;4.758;2022-11-23T11:27:36;99574.06;;;7.45;100.00
71485;BME280;59300;52.074;4.758;2022-11-23T11:30:59;99554.88;;;7.43;100.00
71485;BME280;59300;52.074;4.758;2022-11-23T11:34:32;99544.38;;;7.43;100.00
71485;BME280;59300;52.074;4.758;2022-11-23T11:37:40;99539.84;;;7.48;100.00
71485;BME280;59300;52.074;4.758;2022-11-23T11:40:48;99530.28;;;7.45;100.00
71485;BME280;59300;52.074;4.758;2022-11-23T11:43:56;99530.53;;;7.63;100.00
71485;BME280;59300;52.074;4.758;2022-11-23T11:47:03;99532.16;;;7.65;100.00
71485;BME280;59300;52.074;4.758;2022-11-23T11:50:30;99536.41;;;7.69;100.00
71485;BME280;59300;52.074;4.758;2022-11-23T11:53:48;99528.97;;;7.81;100.00
71485;BME280;59300;52.074;4.758;2022-11-23T11:57:04;99529.38;;;7.94;100.00
71485;BME280;59300;52.074;4.758;2022-11-23T12:00:13;99524.63;;;8.04;100.00
71485;BME280;59300;52.074;4.758;2022-11-23T12:03:28;99523.16;;;7.96;100.00
71485;BME280;59300;52.074;4.758;2022-11-23T12:06:42;99511.72;;;7.97;100.00
71485;BME280;59300;52.074;4.758;2022-11-23T12:09:47;99519.47;;;8.00;100.00
71485;BME280;59300;52.074;4.758;2022-11-23T12:12:51;99511.47;;;8.04;100.00
71485;BME280;59300;52.074;4.758;2022-11-23T12:16:00;99507.63;;;8.12;100.00
71485;BME280;59300;52.074;4.758;2022-11-23T12:19:18;99503.97;;;8.17;100.00
71485;BME280;59300;52.074;4.758;2022-11-23T12:26:11;99492.22;;;7.81;100.00
71485;BME280;59300;52.074;4.758;2022-11-23T12:29:23;99495.75;;;7.80;100.00
71485;BME280;59300;52.074;4.758;2022-11-23T12:42:46;99474.47;;;8.10;100.00
71485;BME280;59300;52.074;4.758;2022-11-23T12:52:54;99469.03;;;8.14;100.00
71485;BME280;59300;52.074;4.758;2022-11-23T12:56:07;99472.69;;;8.10;100.00
71485;BME280;59300;52.074;4.758;2022-11-23T12:59:10;99488.56;;;8.07;100.00
71485;BME280;59300;52.074;4.758;2022-11-23T13:02:39;99499.31;;;8.01;100.00
71485;BME280;59300;52.074;4.758;2022-11-23T13:05:58;99487.28;;;7.95;100.00
71485;BME280;59300;52.074;4.758;2022-11-23T13:09:15;99498.09;;;7.88;100.00
71485;BME280;59300;52.074;4.758;2022-11-23T13:16:13;99508.25;;;7.49;100.00
71485;BME280;59300;52.074;4.758;2022-11-23T13:19:29;99510.63;;;7.32;100.00
71485;BME280;59300;52.074;4.758;2022-11-23T13:22:35;99511.13;;;7.18;100.00
71485;BME280;59300;52.074;4.758;2022-11-23T13:25:38;99510.56;;;7.10;100.00
71485;BME280;59300;52.074;4.758;2022-11-23T13:28:40;99511.56;;;7.05;100.00
71485;BME280;59300;52.074;4.758;2022-11-23T13:31:42;99514.44;;;6.99;100.00
71485;BME280;59300;52.074;4.758;2022-11-23T13:34:45;99528.53;;;6.95;100.00
71485;BME280;59300;52.074;4.758;2022-11-23T13:40:57;99532.22;;;6.89;100.00
71485;BME280;59300;52.074;4.758;2022-11-23T13:44:20;99533.06;;;6.90;100.00
71485;BME280;59300;52.074;4.758;2022-11-23T13:47:22;99516.53;;;6.88;100.00
71485;BME280;59300;52.074;4.758;2022-11-23T13:50:24;99535.03;;;6.83;100.00
71485;BME280;59300;52.074;4.758;2022-11-23T13:53:34;99536.88;;;6.81;100.00
71485;BME280;59300;52.074;4.758;2022-11-23T13:56:39;99539.53;;;6.80;100.00
71485;BME280;59300;52.074;4.758;2022-11-23T13:59:42;99541.34;;;6.78;100.00
71485;BME280;59300;52.074;4.758;2022-11-23T14:02:44;99550.91;;;6.80;100.00
71485;BME280;59300;52.074;4.758;2022-11-23T14:08:58;99536.88;;;6.81;100.00
71485;BME280;59300;52.074;4.758;2022-11-23T14:15:22;99554.38;;;6.81;100.00
71485;BME280;59300;52.074;4.758;2022-11-23T14:22:25;99549.06;;;6.82;100.00
71485;BME280;59300;52.074;4.758;2022-11-23T14:29:05;99530.72;;;6.82;100.00
71485;BME280;59300;52.074;4.758;2022-11-23T14:35:32;99531.78;;;6.76;100.00
71485;BME280;59300;52.074;4.758;2022-11-23T14:39:03;99538.81;;;6.76;100.00
71485;BME280;59300;52.074;4.758;2022-11-23T14:42:17;99553.72;;;6.74;100.00
71485;BME280;59300;52.074;4.758;2022-11-23T14:45:22;99552.91;;;6.72;100.00
71485;BME280;59300;52.074;4.758;2022-11-23T14:48:27;99563.47;;;6.70;100.00
71485;BME280;59300;52.074;4.758;2022-11-23T14:51:30;99559.94;;;6.71;100.00
71485;BME280;59300;52.074;4.758;2022-11-23T14:54:31;99553.72;;;6.74;100.00
71485;BME280;59300;52.074;4.758;2022-11-23T14:57:40;99566.00;;;6.73;100.00
71485;BME280;59300;52.074;4.758;2022-11-23T15:00:44;99570.19;;;6.78;100.00
71485;BME280;59300;52.074;4.758;2022-11-23T15:03:55;99564.97;;;6.78;100.00
71485;BME280;59300;52.074;4.758;2022-11-23T15:07:01;99576.25;;;6.80;100.00
71485;BME280;59300;52.074;4.758;2022-11-23T15:10:21;99577.97;;;6.81;100.00
71485;BME280;59300;52.074;4.758;2022-11-23T15:13:28;99576.25;;;6.80;100.00
71485;BME280;59300;52.074;4.758;2022-11-23T15:16:38;99580.66;;;6.79;100.00
71485;BME280;59300;52.074;4.758;2022-11-23T15:19:40;99589.38;;;6.80;100.00
71485;BME280;59300;52.074;4.758;2022-11-23T15:22:42;99592.00;;;6.80;100.00
71485;BME280;59300;52.074;4.758;2022-11-23T15:25:54;99595.44;;;6.82;100.00
71485;BME280;59300;52.074;4.758;2022-11-23T15:29:00;99606.88;;;6.79;100.00
71485;BME280;59300;52.074;4.758;2022-11-23T15:32:03;99600.75;;;6.79;100.00
71485;BME280;59300;52.074;4.758;2022-11-23T15:35:37;99606.91;;;6.78;100.00
71485;BME280;59300;52.074;4.758;2022-11-23T15:38:39;99613.88;;;6.79;100.00
71485;BME280;59300;52.074;4.758;2022-11-23T15:41:41;99613.88;;;6.79;100.00
71485;BME280;59300;52.074;4.758;2022-11-23T15:44:43;99609.50;;;6.79;100.00
71485;BME280;59300;52.074;4.758;2022-11-23T15:47:51;99620.84;;;6.80;100.00
71485;BME280;59300;52.074;4.758;2022-11-23T15:50:57;99620.75;;;6.83;100.00
71485;BME280;59300;52.074;4.758;2022-11-23T15:54:00;99620.75;;;6.83;100.00
71485;BME280;59300;52.074;4.758;2022-11-23T15:57:25;99638.91;;;6.89;100.00
71485;BME280;59300;52.074;4.758;2022-11-23T16:00:27;99640.59;;;6.90;100.00
71485;BME280;59300;52.074;4.758;2022-11-23T16:03:32;99646.66;;;6.92;100.00
71485;BME280;59300;52.074;4.758;2022-11-23T16:06:39;99647.38;;;6.97;100.00
71485;BME280;59300;52.074;4.758;2022-11-23T16:09:41;99663.13;;;6.97;100.00
71485;BME280;59300;52.074;4.758;2022-11-23T16:16:00;99664.84;;;6.98;100.00
71485;BME280;59300;52.074;4.758;2022-11-23T16:19:16;99680.47;;;7.01;100.00
71485;BME280;59300;52.074;4.758;2022-11-23T16:22:24;99673.41;;;7.03;100.00
71485;BME280;59300;52.074;4.758;2022-11-23T16:25:32;99670.84;;;7.02;100.00
71485;BME280;59300;52.074;4.758;2022-11-23T16:28:56;99676.94;;;7.02;100.00
71485;BME280;59300;52.074;4.758;2022-11-23T16:32:00;99682.09;;;7.05;100.00
71485;BME280;59300;52.074;4.758;2022-11-23T16:35:15;99685.72;;;7.01;100.00
71485;BME280;59300;52.074;4.758;2022-11-23T16:38:17;99689.16;;;7.03;100.00
71485;BME280;59300;52.074;4.758;2022-11-23T16:41:19;99688.19;;;7.06;100.00
71485;BME280;59300;52.074;4.758;2022-11-23T16:44:24;99688.25;;;7.04;100.00
71485;BME280;59300;52.074;4.758;2022-11-23T16:47:30;99688.31;;;7.03;100.00
71485;BME280;59300;52.074;4.758;2022-11-23T16:50:33;99704.06;;;7.01;100.00
71485;BME280;59300;52.074;4.758;2022-11-23T16:53:36;99704.06;;;7.01;100.00
71485;BME280;59300;52.074;4.758;2022-11-23T16:56:58;99714.47;;;7.04;100.00
71485;BME280;59300;52.074;4.758;2022-11-23T17:00:03;99718.22;;;6.97;100.00
71485;BME280;59300;52.074;4.758;2022-11-23T17:03:13;99721.59;;;7.01;100.00
71485;BME280;59300;52.074;4.758;2022-11-23T17:06:15;99728.94;;;6.89;100.00
71485;BME280;59300;52.074;4.758;2022-11-23T17:09:17;99731.72;;;6.85;100.00
71485;BME280;59300;52.074;4.758;2022-11-23T17:12:19;99737.03;;;6.82;100.00
71485;BME280;59300;52.074;4.758;2022-11-23T17:15:22;99748.50;;;6.79;100.00
71485;BME280;59300;52.074;4.758;2022-11-23T17:18:24;99749.63;;;6.70;100.00
71485;BME280;59300;52.074;4.758;2022-11-23T17:21:25;99758.25;;;6.74;100.00
71485;BME280;59300;52.074;4.758;2022-11-23T17:24:27;99767.97;;;6.70;100.00
71485;BME280;59300;52.074;4.758;2022-11-23T17:27:31;99769.03;;;6.63;100.00
71485;BME280;59300;52.074;4.758;2022-11-23T17:30:34;99768.34;;;6.56;100.00
71485;BME280;59300;52.074;4.758;2022-11-23T17:33:35;99772.91;;;6.50;100.00
71485;BME280;59300;52.074;4.758;2022-11-23T17:36:37;99771.13;;;6.52;100.00
71485;BME280;59300;52.074;4.758;2022-11-23T17:39:39;99776.28;;;6.55;100.00
71485;BME280;59300;52.074;4.758;2022-11-23T17:42:41;99776.34;;;6.53;100.00